Flight Track Log - Related Links

Times and Time Zones

All times are in EDT time to prevent confusion due to time zone crossing. See the N53585 flight status page for this flight to view local times or setup timezone preferences in your user account.

Time Position Orientation Groundspeed Altitude Reporting Facility
EDT Latitude Longitude Course Direction KTS MPH feet Rate Location/Type
Mon 09:41:16 AM 32.9667 -96.8333 90° East 63 72 900  Level Dallas / Fort Worth TRACON
Mon 09:42:10 AM 32.9667 -96.8167 90° East 96 110 1,300 440 Climbing Dallas / Fort Worth TRACON
Mon 09:43:05 AM 32.9839 -96.7986 41° Northeast 109 125 1,700 308 Climbing Fort Worth Center
Mon 09:44:07 AM 33.0131 -96.7750 34° Northeast 126 145 1,900 435 Climbing Fort Worth Center
Mon 09:45:09 AM 33.0403 -96.7456 42° Northeast 133 153 2,600 629 Climbing Fort Worth Center
Mon 09:46:11 AM 33.0656 -96.7167 44° Northeast 120 138 3,200 435 Climbing Fort Worth Center
Mon 09:47:13 AM 33.0906 -96.6897 42° Northeast 120 138 3,500 339 Climbing Fort Worth Center
Mon 09:48:15 AM 33.1194 -96.6569 44° Northeast 130 150 3,900 484 Climbing Fort Worth Center
Mon 09:49:17 AM 33.1428 -96.6286 45° Northeast 121 139 4,500 339 Climbing Fort Worth Center
Mon 09:50:19 AM 33.1700 -96.5969 44° Northeast 135 155 4,600 339 Climbing Fort Worth Center
Mon 09:51:21 AM 33.1958 -96.5672 44° Northeast 122 140 5,200 432 Climbing Fort Worth Center
Mon 09:52:24 AM 33.2172 -96.5397 47° Northeast 117 135 5,500 144 Climbing Fort Worth Center
Mon 09:53:26 AM 33.2464 -96.5069 43° Northeast 132 152 5,500  Level Fort Worth Center
Mon 09:54:28 AM 33.2742 -96.4767 42° Northeast 133 153 5,500  Level Fort Worth Center
Mon 09:55:30 AM 33.3028 -96.4461 42° Northeast 135 155 5,500  Level Fort Worth Center
Mon 09:56:32 AM 33.3336 -96.4131 42° Northeast 135 155 5,500  Level Fort Worth Center
Mon 09:57:34 AM 33.3619 -96.3825 42° Northeast 135 155 5,500  Level Fort Worth Center
Mon 09:58:36 AM 33.3922 -96.3492 43° Northeast 136 157 5,500  Level Fort Worth Center
Mon 09:59:38 AM 33.4194 -96.3183 43° Northeast 136 157 5,500  Level Fort Worth Center
Mon 10:00:40 AM 33.4442 -96.2811 51° Northeast 135 155 5,500  Level Fort Worth Center
Mon 10:01:42 AM 33.4575 -96.2375 70° East 135 155 5,500  Level Fort Worth Center
Mon 10:02:45 AM 33.4714 -96.1969 68° East 135 155 5,500  Level Fort Worth Center
Mon 10:03:47 AM 33.4864 -96.1522 68° East 135 155 5,500  Level Fort Worth Center
Mon 10:04:49 AM 33.5003 -96.1106 68° East 134 154 5,500  Level Fort Worth Center
Mon 10:05:51 AM 33.5153 -96.0669 68° East 134 154 5,500  Level Fort Worth Center
Mon 10:06:53 AM 33.5233 -96.0244 77° East 133 153 5,500  Level Fort Worth Center
Mon 10:07:55 AM 33.5306 -95.9789 79° East 131 151 5,500  Level Fort Worth Center
Mon 10:08:57 AM 33.5386 -95.9361 77° East 128 147 5,500  Level Fort Worth Center
Mon 10:09:59 AM 33.5450 -95.8925 80° East 132 152 5,500  Level Fort Worth Center
Mon 10:11:01 AM 33.5528 -95.8456 79° East 132 152 5,500  Level Fort Worth Center
Mon 10:12:03 AM 33.5611 -95.8053 76° East 131 151 5,500  Level Fort Worth Center
Mon 10:13:05 AM 33.5692 -95.7617 77° East 132 152 5,500  Level Fort Worth Center
Mon 10:14:07 AM 33.5792 -95.7200 74° East 131 151 5,500 -48 Level Fort Worth Center
Mon 10:15:09 AM 33.5900 -95.6775 73° East 132 152 5,400 -288 Descending Fort Worth Center
Mon 10:16:12 AM 33.6039 -95.6247 72° East 133 153 4,900 -476 Descending Fort Worth Center

Login

Don't have an account? Register now (free) for customized features, flight alerts, and more!